Darstellungsparameter: Aktuell verwendete Einstellungen:
Skalierung der Graphiken ... ?
xyx+y,   Skalierungsfaktor:      Skalierung: Modus: x, Faktor: 1
Darstellungszeitraum ... ?
Vom - - bis: - -   Zeitraum: 26.12.2010 - 26.12.2010
Min/Max/Avg-Anzeige ... ?
Zeige MMA aktuell
Zeige MMA Monat
Zeige MMA alles
Zeige --A aktuell
Zeige --A Monat
Zeige --A alles
Keine MMA-Anzeige
MMA:
Average (ber die Originaldaten)
MMA-Basis: 26.12.2010 - 26.12.2010
Quicknavigation für Darstellung... ?
Tage:      1T, 2T, 3T, 5T -1T -2T -3T -5T +1T +2T +3T +5T
Wochen: 1W, 2W, 3W -1W -2W -3W +1W +2W +3W
Monate: 1M, 3M, 6M -1M -3M -6M +1M +3M +6M
Jahre:    1J, 3J, 5J, 10J -1J -3J -5J -10J +1J +3J +5J +10J
Nutze für die Darstellung ... ?
Originaldaten oder Mittelwerte auf ...
Stundenbasis Tagesbasis Wochenbasis
Monatsbasis Jahresbasis      Datenbasis: Original-Daten
Darstellen als:
Statistik (Auto) Statistik J:M      Darstellung:
Zur Graphik,    zurück zur Übersicht aller Sensoren.
 
Tabellarische Datenbersicht: ?
 
Sensor: Nr:Datum:Temp:Abs-Feuchte:Windchill:Wind:
Aussen-T/F 1 26-12-2010 00:08:01 -6.8 C 2.18 g/m*3 -6.8 C 0 km/h
2 26-12-2010 00:20:01 -6.9 C 2.16 g/m*3 -6.9 C 0 km/h
3 26-12-2010 00:32:01 -7 C 2.12 g/m*3 -7 C 0 km/h
4 26-12-2010 00:44:01 -7.3 C 2.07 g/m*3 -7.3 C 0 km/h
5 26-12-2010 00:56:01 -7.4 C 2.09 g/m*3 -7.4 C 0 km/h
6 26-12-2010 01:08:02 -7.8 C 2 g/m*3 -7.8 C 0 km/h
7 26-12-2010 01:20:02 -7.9 C 2.01 g/m*3 -7.9 C 0 km/h
8 26-12-2010 01:32:01 -8 C 2 g/m*3 -8 C 0 km/h
9 26-12-2010 01:44:01 -8.2 C 1.97 g/m*3 -8.2 C 0 km/h
10 26-12-2010 01:56:01 -8.1 C 1.98 g/m*3 -8.1 C 0 km/h
11 26-12-2010 02:08:01 -8.6 C 1.88 g/m*3 -8.6 C 0 km/h
12 26-12-2010 02:20:02 -8.7 C 1.9 g/m*3 -8.7 C 0 km/h
13 26-12-2010 02:32:01 -8.8 C 1.88 g/m*3 -8.8 C 0 km/h
14 26-12-2010 02:44:01 -8.9 C 1.87 g/m*3 -8.9 C 0 km/h
15 26-12-2010 02:57:05 -8.9 C 1.87 g/m*3 -8.9 C 0 km/h
16 26-12-2010 03:09:05 -9 C 1.83 g/m*3 -9 C 0 km/h
17 26-12-2010 03:21:04 -9.1 C 1.81 g/m*3 -9.1 C 0 km/h
18 26-12-2010 03:33:02 -9.1 C 1.81 g/m*3 -9.1 C 0 km/h
19 26-12-2010 03:45:02 -9 C 1.83 g/m*3 -9 C 0 km/h
20 26-12-2010 03:57:02 -9 C 1.83 g/m*3 -9 C 0 km/h
21 26-12-2010 04:09:02 -9 C 1.83 g/m*3 -9 C 0 km/h
22 26-12-2010 04:21:02 -9.2 C 1.83 g/m*3 -9.2 C 0 km/h
23 26-12-2010 04:33:02 -9.1 C 1.86 g/m*3 -9.1 C 0 km/h
24 26-12-2010 04:45:02 -8.9 C 1.89 g/m*3 -8.9 C 0 km/h
25 26-12-2010 04:57:02 -9 C 1.85 g/m*3 -9 C 0 km/h
Sensor: Nr:Datum:Temp:Abs-Feuchte:Windchill:Wind:
Aussen-T/F 26 26-12-2010 05:09:02 -8.8 C 1.91 g/m*3 -8.8 C 0 km/h
27 26-12-2010 05:21:02 -8.6 C 1.91 g/m*3 -8.6 C 0 km/h
28 26-12-2010 05:33:02 -8.6 C 1.91 g/m*3 -8.6 C 0 km/h
29 26-12-2010 05:45:02 -8.2 C 1.97 g/m*3 -8.2 C 0 km/h
30 26-12-2010 05:57:02 -8 C 2.02 g/m*3 -8 C 0 km/h
31 26-12-2010 06:09:02 -7.6 C 2.06 g/m*3 -7.6 C 0 km/h
32 26-12-2010 06:21:02 -7.4 C 2.09 g/m*3 -7.4 C 0 km/h
33 26-12-2010 06:33:01 -7.3 C 2.1 g/m*3 -7.3 C 0 km/h
34 26-12-2010 06:45:02 -7 C 2.15 g/m*3 -7 C 0 km/h
35 26-12-2010 06:57:02 -6.9 C 2.16 g/m*3 -6.9 C 0 km/h
36 26-12-2010 07:09:01 -6.7 C 2.2 g/m*3 -6.7 C 0 km/h
37 26-12-2010 07:21:01 -6.4 C 2.25 g/m*3 -6.4 C 0 km/h
38 26-12-2010 07:33:02 -6.2 C 2.28 g/m*3 -6.2 C 0 km/h
39 26-12-2010 07:45:02 -6.2 C 2.25 g/m*3 -6.2 C 0 km/h
40 26-12-2010 07:57:02 -6.2 C 2.25 g/m*3 -6.2 C 0 km/h
41 26-12-2010 08:09:02 -6.1 C 2.3 g/m*3 -6.1 C 0 km/h
42 26-12-2010 08:21:02 -5.9 C 2.36 g/m*3 -5.9 C 0 km/h
43 26-12-2010 08:33:02 -5.8 C 2.35 g/m*3 -5.8 C 0 km/h
44 26-12-2010 08:45:02 -5.8 C 2.38 g/m*3 -5.8 C 0 km/h
45 26-12-2010 08:57:02 -5.6 C 2.45 g/m*3 -5.6 C 0 km/h
46 26-12-2010 09:09:02 -5.4 C 2.51 g/m*3 -5.4 C 0 km/h
47 26-12-2010 09:21:02 -5.2 C 2.55 g/m*3 -5.2 C 0 km/h
48 26-12-2010 09:33:02 -4.7 C 2.64 g/m*3 -4.7 C 0 km/h
49 26-12-2010 09:45:02 -4.6 C 2.63 g/m*3 -4.6 C 0 km/h
50 26-12-2010 09:57:02 -4.5 C 2.65 g/m*3 -4.5 C 0 km/h
Sensor: Nr:Datum:Temp:Abs-Feuchte:Windchill:Wind:
Aussen-T/F 51 26-12-2010 10:09:02 -4.5 C 2.65 g/m*3 -4.5 C 0 km/h
52 26-12-2010 10:21:02 -4.4 C 2.67 g/m*3 -4.4 C 0 km/h
53 26-12-2010 10:33:02 -4.4 C 2.67 g/m*3 -4.4 C 0 km/h
54 26-12-2010 10:45:02 -4.1 C 2.69 g/m*3 -4.1 C 0 km/h
55 26-12-2010 10:57:02 -3.8 C 2.71 g/m*3 -3.8 C 0 km/h
56 26-12-2010 11:09:03 -3.6 C 2.71 g/m*3 -3.6 C 0 km/h
57 26-12-2010 11:21:02 -3.5 C 2.69 g/m*3 -3.5 C 0 km/h
58 26-12-2010 11:33:02 -3.7 C 2.65 g/m*3 -3.7 C 0 km/h
59 26-12-2010 11:45:02 -3.5 C 2.69 g/m*3 -3.5 C 0 km/h
60 26-12-2010 11:57:02 -3.3 C 2.69 g/m*3 -3.3 C 0 km/h
61 26-12-2010 12:09:02 -3.4 C 2.71 g/m*3 -3.4 C 0 km/h
62 26-12-2010 12:21:02 -3.3 C 2.73 g/m*3 -3.3 C 0 km/h
63 26-12-2010 12:33:01 -3 C 2.83 g/m*3 -3 C 0 km/h
64 26-12-2010 12:45:02 -3.1 C 2.81 g/m*3 -3.1 C 0 km/h
65 26-12-2010 12:57:03 -2.9 C 2.85 g/m*3 -2.9 C 0 km/h
66 26-12-2010 13:09:01 -2.8 C 2.87 g/m*3 -2.8 C 0 km/h
67 26-12-2010 13:21:01 -2.6 C 2.87 g/m*3 -2.6 C 0 km/h
68 26-12-2010 13:33:02 -2.7 C 2.81 g/m*3 -2.7 C 0 km/h
69 26-12-2010 13:45:02 -2.8 C 2.83 g/m*3 -2.8 C 0 km/h
70 26-12-2010 13:57:02 -2.7 C 2.89 g/m*3 -2.7 C 0 km/h
71 26-12-2010 14:09:02 -2.8 C 2.91 g/m*3 -2.8 C 0 km/h
72 26-12-2010 14:21:01 -2.7 C 2.97 g/m*3 -2.7 C 0 km/h
73 26-12-2010 14:33:02 -2.4 C 3.07 g/m*3 -2.4 C 0 km/h
74 26-12-2010 14:45:02 -2.7 C 3.01 g/m*3 -2.7 C 0 km/h
75 26-12-2010 14:57:02 -2.7 C 3.05 g/m*3 -2.7 C 0 km/h
Sensor: Nr:Datum:Temp:Abs-Feuchte:Windchill:Wind:
Aussen-T/F 76 26-12-2010 15:09:02 -2.6 C 3.11 g/m*3 -2.6 C 0 km/h
77 26-12-2010 15:21:02 -2.6 C 3.15 g/m*3 -2.6 C 0 km/h
78 26-12-2010 15:33:02 -2.8 C 3.11 g/m*3 -2.8 C 0 km/h
79 26-12-2010 15:45:02 -2.8 C 3.15 g/m*3 -2.8 C 0 km/h
80 26-12-2010 15:57:02 -2.8 C 3.15 g/m*3 -2.8 C 0 km/h
81 26-12-2010 16:09:02 -2.8 C 3.15 g/m*3 -2.8 C 0 km/h
82 26-12-2010 16:21:02 -2.8 C 3.15 g/m*3 -2.8 C 0 km/h
83 26-12-2010 16:33:02 -2.9 C 3.16 g/m*3 -2.9 C 0 km/h
84 26-12-2010 16:45:02 -2.9 C 3.16 g/m*3 -2.9 C 0 km/h
85 26-12-2010 16:57:02 -2.9 C 3.16 g/m*3 -2.9 C 0 km/h
86 26-12-2010 17:09:02 -2.8 C 3.19 g/m*3 -2.8 C 0 km/h
87 26-12-2010 17:21:02 -2.7 C 3.17 g/m*3 -2.7 C 0 km/h
88 26-12-2010 17:33:02 -2.8 C 3.15 g/m*3 -2.8 C 0 km/h
89 26-12-2010 17:45:02 -2.9 C 3.16 g/m*3 -2.9 C 0 km/h
90 26-12-2010 17:57:02 -2.9 C 3.16 g/m*3 -2.9 C 0 km/h
91 26-12-2010 18:09:01 -3.2 C 3.1 g/m*3 -3.2 C 0 km/h
92 26-12-2010 18:21:02 -3.1 C 3.16 g/m*3 -3.1 C 0 km/h
93 26-12-2010 18:33:01 -2.8 C 3.23 g/m*3 -2.8 C 0 km/h
94 26-12-2010 18:45:02 -2.7 C 3.21 g/m*3 -2.7 C 0 km/h
95 26-12-2010 18:57:03 -2.7 C 3.17 g/m*3 -2.7 C 0 km/h
96 26-12-2010 19:09:01 -2.8 C 3.15 g/m*3 -2.8 C 0 km/h
97 26-12-2010 19:21:01 -2.7 C 3.17 g/m*3 -2.7 C 0 km/h
98 26-12-2010 19:33:02 -2.7 C 3.17 g/m*3 -2.7 C 0 km/h
99 26-12-2010 19:45:02 -2.7 C 3.21 g/m*3 -2.7 C 0 km/h
100 26-12-2010 19:57:02 -2.7 C 3.21 g/m*3 -2.7 C 0 km/h
Sensor: Nr:Datum:Temp:Abs-Feuchte:Windchill:Wind:
Aussen-T/F 101 26-12-2010 20:09:02 -3 C 3.14 g/m*3 -3 C 0 km/h
102 26-12-2010 20:21:02 -3.5 C 3.03 g/m*3 -3.5 C 0 km/h
103 26-12-2010 20:33:02 -2.9 C 3.24 g/m*3 -2.9 C 0 km/h
104 26-12-2010 20:45:02 -2.8 C 3.23 g/m*3 -2.8 C 0 km/h
105 26-12-2010 20:57:02 -3 C 3.14 g/m*3 -3 C 0 km/h
106 26-12-2010 21:09:02 -3.5 C 3.03 g/m*3 -3.5 C 0 km/h
107 26-12-2010 21:21:02 -3 C 3.18 g/m*3 -3 C 0 km/h
108 26-12-2010 21:33:02 -3 C 3.14 g/m*3 -3 C 0 km/h
109 26-12-2010 21:45:02 -3.5 C 3.03 g/m*3 -3.5 C 0 km/h
110 26-12-2010 21:57:02 -3.5 C 3.03 g/m*3 -3.5 C 0 km/h
111 26-12-2010 22:09:02 -3.2 C 3.14 g/m*3 -3.2 C 0 km/h
112 26-12-2010 22:22:04 -3 C 3.14 g/m*3 -3 C 0 km/h
113 26-12-2010 22:34:04 -3 C 3.1 g/m*3 -3 C 0 km/h
114 26-12-2010 22:46:04 -2.9 C 3.13 g/m*3 -2.9 C 0 km/h
115 26-12-2010 22:58:04 -3.1 C 3.12 g/m*3 -3.1 C 0 km/h
116 26-12-2010 23:10:04 -3.1 C 3.12 g/m*3 -3.1 C 0 km/h
117 26-12-2010 23:22:04 -2.8 C 3.19 g/m*3 -2.8 C 0 km/h
118 26-12-2010 23:34:04 -2.6 C 3.19 g/m*3 -2.6 C 0 km/h
119 26-12-2010 23:46:04 -2.5 C 3.21 g/m*3 -2.5 C 0 km/h
120 26-12-2010 23:58:04 -2.6 C 3.19 g/m*3 -2.6 C 0 km/h

Legende:
   Min
   Max


Maximal/Minimal-Werte vom 26.12.2010 - 26.12.2010

Sensor Min Max Avg
Temp
(Aussen-T/F)
-9.2 °C
26-12-2010  04:21:02
-2.4 °C
26-12-2010  14:33:02
-4.88 °C
Abs-Feuchte
(Aussen-T/F)
1.81 g/m*3
26-12-2010  03:21:04
3.24 g/m*3
26-12-2010  20:33:02
2.62 g/m*3
Windchill
(Aussen-T/F)
-9.2 C
26-12-2010  04:21:02
-2.4 C
26-12-2010  14:33:02
-4.84 C

Die Daten stammen von einer Davis Vantage Pro 2 Wetter-Station und werden unter Linux mit der Software wview2wettercgi und aufbereitet. Alle Angaben erfolgen ohne Gewähr für ihre Vollständigkeit oder Richtigkeit.
Kontakt: Rainer Krienke krienke@uni-koblenz.de . Meine Webseiten an der Uni Koblenz oder privat.
Version: $Revision: 0.78 $